sensor_id;sensor_type;location;lat;lon;timestamp;P1;durP1;ratioP1;P2;durP2;ratioP2
49041;SDS011;34859;51.608;11.462;2023-12-20T00:01:19;2.72;;;2.42;;
49041;SDS011;34859;51.608;11.462;2023-12-20T00:03:47;3.00;;;2.80;;
49041;SDS011;34859;51.608;11.462;2023-12-20T00:06:12;2.85;;;2.72;;
49041;SDS011;34859;51.608;11.462;2023-12-20T00:08:38;3.08;;;2.75;;
49041;SDS011;34859;51.608;11.462;2023-12-20T00:11:04;2.67;;;2.58;;
49041;SDS011;34859;51.608;11.462;2023-12-20T00:13:49;2.97;;;2.85;;
49041;SDS011;34859;51.608;11.462;2023-12-20T00:16:17;3.15;;;2.95;;
49041;SDS011;34859;51.608;11.462;2023-12-20T00:18:43;3.22;;;3.03;;
49041;SDS011;34859;51.608;11.462;2023-12-20T00:21:08;3.58;;;3.38;;
49041;SDS011;34859;51.608;11.462;2023-12-20T00:23:34;3.30;;;3.10;;
49041;SDS011;34859;51.608;11.462;2023-12-20T00:26:00;3.47;;;3.28;;
49041;SDS011;34859;51.608;11.462;2023-12-20T00:28:29;3.25;;;3.05;;
49041;SDS011;34859;51.608;11.462;2023-12-20T00:30:57;3.72;;;3.53;;
49041;SDS011;34859;51.608;11.462;2023-12-20T00:33:22;3.45;;;3.25;;
49041;SDS011;34859;51.608;11.462;2023-12-20T00:35:48;3.72;;;3.53;;
49041;SDS011;34859;51.608;11.462;2023-12-20T00:38:14;3.65;;;3.45;;
49041;SDS011;34859;51.608;11.462;2023-12-20T00:40:40;3.88;;;3.67;;
49041;SDS011;34859;51.608;11.462;2023-12-20T00:43:07;3.95;;;3.65;;
49041;SDS011;34859;51.608;11.462;2023-12-20T00:45:33;3.53;;;3.33;;
49041;SDS011;34859;51.608;11.462;2023-12-20T00:47:58;3.97;;;3.78;;
49041;SDS011;34859;51.608;11.462;2023-12-20T00:50:24;3.53;;;3.33;;
49041;SDS011;34859;51.608;11.462;2023-12-20T00:52:50;3.58;;;3.38;;
49041;SDS011;34859;51.608;11.462;2023-12-20T00:55:19;4.55;;;4.15;;
49041;SDS011;34859;51.608;11.462;2023-12-20T00:57:47;3.92;;;3.60;;
49041;SDS011;34859;51.608;11.462;2023-12-20T01:00:13;4.88;;;4.50;;
49041;SDS011;34859;51.608;11.462;2023-12-20T01:02:39;5.60;;;3.80;;
49041;SDS011;34859;51.608;11.462;2023-12-20T01:05:07;3.97;;;3.78;;
49041;SDS011;34859;51.608;11.462;2023-12-20T01:07:34;3.88;;;3.67;;
49041;SDS011;34859;51.608;11.462;2023-12-20T01:10:00;4.50;;;4.10;;
49041;SDS011;34859;51.608;11.462;2023-12-20T01:12:30;3.80;;;3.60;;
49041;SDS011;34859;51.608;11.462;2023-12-20T01:14:58;3.92;;;3.72;;
49041;SDS011;34859;51.608;11.462;2023-12-20T01:17:23;3.88;;;3.67;;
49041;SDS011;34859;51.608;11.462;2023-12-20T01:19:50;3.80;;;3.60;;
49041;SDS011;34859;51.608;11.462;2023-12-20T01:22:20;3.58;;;3.38;;
49041;SDS011;34859;51.608;11.462;2023-12-20T01:24:47;4.00;;;3.70;;
49041;SDS011;34859;51.608;11.462;2023-12-20T01:27:28;4.30;;;4.00;;
49041;SDS011;34859;51.608;11.462;2023-12-20T01:29:58;3.95;;;3.70;;
49041;SDS011;34859;51.608;11.462;2023-12-20T01:32:24;5.75;;;3.95;;
49041;SDS011;34859;51.608;11.462;2023-12-20T01:34:49;4.30;;;4.10;;
49041;SDS011;34859;51.608;11.462;2023-12-20T01:37:19;4.30;;;3.88;;
49041;SDS011;34859;51.608;11.462;2023-12-20T01:39:47;4.03;;;3.83;;
49041;SDS011;34859;51.608;11.462;2023-12-20T01:42:12;5.15;;;4.75;;
49041;SDS011;34859;51.608;11.462;2023-12-20T01:44:38;4.80;;;4.50;;
49041;SDS011;34859;51.608;11.462;2023-12-20T01:47:04;5.85;;;5.45;;
49041;SDS011;34859;51.608;11.462;2023-12-20T01:49:30;5.60;;;5.20;;
49041;SDS011;34859;51.608;11.462;2023-12-20T01:51:57;5.30;;;4.88;;
49041;SDS011;34859;51.608;11.462;2023-12-20T01:54:22;5.38;;;4.97;;
49041;SDS011;34859;51.608;11.462;2023-12-20T01:56:48;5.50;;;5.18;;
49041;SDS011;34859;51.608;11.462;2023-12-20T01:59:20;5.25;;;4.95;;
49041;SDS011;34859;51.608;11.462;2023-12-20T02:01:47;5.63;;;5.32;;
49041;SDS011;34859;51.608;11.462;2023-12-20T02:04:13;5.15;;;4.85;;
49041;SDS011;34859;51.608;11.462;2023-12-20T02:06:39;5.55;;;5.15;;
49041;SDS011;34859;51.608;11.462;2023-12-20T02:09:07;5.32;;;5.00;;
49041;SDS011;34859;51.608;11.462;2023-12-20T02:11:33;5.63;;;5.32;;
49041;SDS011;34859;51.608;11.462;2023-12-20T02:14:00;4.90;;;4.60;;
49041;SDS011;34859;51.608;11.462;2023-12-20T02:16:28;4.82;;;4.53;;
49041;SDS011;34859;51.608;11.462;2023-12-20T02:18:53;5.50;;;5.10;;
49041;SDS011;34859;51.608;11.462;2023-12-20T02:21:24;5.45;;;5.05;;
49041;SDS011;34859;51.608;11.462;2023-12-20T02:23:50;5.43;;;5.05;;
49041;SDS011;34859;51.608;11.462;2023-12-20T02:26:17;5.75;;;5.35;;
49041;SDS011;34859;51.608;11.462;2023-12-20T02:28:43;5.35;;;5.03;;
49041;SDS011;34859;51.608;11.462;2023-12-20T02:31:09;5.10;;;4.72;;
49041;SDS011;34859;51.608;11.462;2023-12-20T02:33:37;4.90;;;4.50;;
49041;SDS011;34859;51.608;11.462;2023-12-20T02:36:04;4.13;;;3.92;;
49041;SDS011;34859;51.608;11.462;2023-12-20T02:38:31;4.53;;;4.13;;
49041;SDS011;34859;51.608;11.462;2023-12-20T02:40:57;3.95;;;3.65;;
49041;SDS011;34859;51.608;11.462;2023-12-20T02:43:23;3.95;;;3.75;;
49041;SDS011;34859;51.608;11.462;2023-12-20T02:45:48;3.28;;;3.08;;
49041;SDS011;34859;51.608;11.462;2023-12-20T02:48:14;3.28;;;3.08;;
49041;SDS011;34859;51.608;11.462;2023-12-20T02:50:51;2.95;;;2.75;;
49041;SDS011;34859;51.608;11.462;2023-12-20T02:53:17;2.47;;;2.25;;
49041;SDS011;34859;51.608;11.462;2023-12-20T02:55:43;2.38;;;2.28;;
49041;SDS011;34859;51.608;11.462;2023-12-20T02:58:09;2.00;;;1.90;;
49041;SDS011;34859;51.608;11.462;2023-12-20T03:00:34;1.92;;;1.83;;
49041;SDS011;34859;51.608;11.462;2023-12-20T03:03:00;2.08;;;1.42;;
49041;SDS011;34859;51.608;11.462;2023-12-20T03:05:28;1.98;;;1.88;;
49041;SDS011;34859;51.608;11.462;2023-12-20T03:07:53;1.60;;;1.50;;
49041;SDS011;34859;51.608;11.462;2023-12-20T03:10:21;1.70;;;1.60;;
49041;SDS011;34859;51.608;11.462;2023-12-20T03:12:48;1.15;;;1.15;;
49041;SDS011;34859;51.608;11.462;2023-12-20T03:15:14;1.42;;;1.33;;
49041;SDS011;34859;51.608;11.462;2023-12-20T03:17:39;1.45;;;1.35;;
49041;SDS011;34859;51.608;11.462;2023-12-20T03:20:07;1.30;;;1.30;;
49041;SDS011;34859;51.608;11.462;2023-12-20T03:22:33;1.30;;;1.20;;
49041;SDS011;34859;51.608;11.462;2023-12-20T03:24:59;1.30;;;1.30;;
49041;SDS011;34859;51.608;11.462;2023-12-20T03:27:25;1.20;;;1.20;;
49041;SDS011;34859;51.608;11.462;2023-12-20T03:29:50;2.22;;;1.40;;
49041;SDS011;34859;51.608;11.462;2023-12-20T03:32:17;1.35;;;1.30;;
49041;SDS011;34859;51.608;11.462;2023-12-20T03:34:42;1.25;;;1.25;;
49041;SDS011;34859;51.608;11.462;2023-12-20T03:37:08;1.25;;;1.25;;
49041;SDS011;34859;51.608;11.462;2023-12-20T03:39:34;1.42;;;1.33;;
49041;SDS011;34859;51.608;11.462;2023-12-20T03:42:00;1.40;;;1.30;;
49041;SDS011;34859;51.608;11.462;2023-12-20T03:44:28;1.38;;;1.27;;
49041;SDS011;34859;51.608;11.462;2023-12-20T03:46:53;1.75;;;1.52;;
49041;SDS011;34859;51.608;11.462;2023-12-20T03:49:19;1.67;;;1.30;;
49041;SDS011;34859;51.608;11.462;2023-12-20T03:51:47;0.95;;;0.95;;
49041;SDS011;34859;51.608;11.462;2023-12-20T03:54:12;1.35;;;1.25;;
49041;SDS011;34859;51.608;11.462;2023-12-20T03:56:38;2.17;;;1.27;;
49041;SDS011;34859;51.608;11.462;2023-12-20T03:59:04;0.90;;;0.90;;
49041;SDS011;34859;51.608;11.462;2023-12-20T04:01:29;1.33;;;1.23;;
49041;SDS011;34859;51.608;11.462;2023-12-20T04:03:57;1.02;;;0.93;;
49041;SDS011;34859;51.608;11.462;2023-12-20T04:06:22;0.80;;;0.80;;
49041;SDS011;34859;51.608;11.462;2023-12-20T04:08:50;1.50;;;1.08;;
49041;SDS011;34859;51.608;11.462;2023-12-20T04:11:17;1.42;;;1.20;;
49041;SDS011;34859;51.608;11.462;2023-12-20T04:14:02;1.35;;;0.77;;
49041;SDS011;34859;51.608;11.462;2023-12-20T04:16:49;0.70;;;0.70;;
49041;SDS011;34859;51.608;11.462;2023-12-20T04:19:35;1.75;;;0.68;;
49041;SDS011;34859;51.608;11.462;2023-12-20T04:22:21;2.72;;;1.00;;
49041;SDS011;34859;51.608;11.462;2023-12-20T04:25:07;0.70;;;0.50;;
49041;SDS011;34859;51.608;11.462;2023-12-20T04:27:53;0.50;;;0.50;;
49041;SDS011;34859;51.608;11.462;2023-12-20T04:30:36;0.80;;;0.70;;
49041;SDS011;34859;51.608;11.462;2023-12-20T04:33:01;1.20;;;0.60;;
49041;SDS011;34859;51.608;11.462;2023-12-20T04:35:34;1.23;;;0.82;;
49041;SDS011;34859;51.608;11.462;2023-12-20T04:38:00;1.77;;;0.50;;
49041;SDS011;34859;51.608;11.462;2023-12-20T04:40:27;0.90;;;0.90;;
49041;SDS011;34859;51.608;11.462;2023-12-20T04:42:53;1.35;;;0.68;;
49041;SDS011;34859;51.608;11.462;2023-12-20T04:45:19;0.88;;;0.73;;
49041;SDS011;34859;51.608;11.462;2023-12-20T04:47:45;0.70;;;0.70;;
49041;SDS011;34859;51.608;11.462;2023-12-20T04:50:12;1.95;;;0.82;;
49041;SDS011;34859;51.608;11.462;2023-12-20T04:52:38;3.15;;;0.80;;
49041;SDS011;34859;51.608;11.462;2023-12-20T04:55:04;2.55;;;1.02;;
49041;SDS011;34859;51.608;11.462;2023-12-20T04:57:30;1.63;;;0.60;;
49041;SDS011;34859;51.608;11.462;2023-12-20T04:59:57;1.55;;;0.95;;
49041;SDS011;34859;51.608;11.462;2023-12-20T05:02:22;2.45;;;1.83;;
49041;SDS011;34859;51.608;11.462;2023-12-20T05:04:48;3.88;;;3.33;;
49041;SDS011;34859;51.608;11.462;2023-12-20T05:07:14;26.80;;;18.25;;
49041;SDS011;34859;51.608;11.462;2023-12-20T05:09:39;19.80;;;13.23;;
49041;SDS011;34859;51.608;11.462;2023-12-20T05:12:08;15.82;;;10.05;;
49041;SDS011;34859;51.608;11.462;2023-12-20T05:14:33;11.45;;;8.20;;
49041;SDS011;34859;51.608;11.462;2023-12-20T05:16:59;7.40;;;6.55;;
49041;SDS011;34859;51.608;11.462;2023-12-20T05:19:25;2.47;;;2.28;;
49041;SDS011;34859;51.608;11.462;2023-12-20T05:21:51;2.30;;;2.20;;
49041;SDS011;34859;51.608;11.462;2023-12-20T05:24:17;4.78;;;1.85;;
49041;SDS011;34859;51.608;11.462;2023-12-20T05:26:43;2.65;;;1.33;;
49041;SDS011;34859;51.608;11.462;2023-12-20T05:29:08;1.88;;;1.63;;
49041;SDS011;34859;51.608;11.462;2023-12-20T05:31:34;1.45;;;1.35;;
49041;SDS011;34859;51.608;11.462;2023-12-20T05:34:00;2.47;;;1.30;;
49041;SDS011;34859;51.608;11.462;2023-12-20T05:36:28;2.10;;;1.73;;
49041;SDS011;34859;51.608;11.462;2023-12-20T05:38:55;3.33;;;1.98;;
49041;SDS011;34859;51.608;11.462;2023-12-20T05:41:21;3.50;;;2.03;;
49041;SDS011;34859;51.608;11.462;2023-12-20T05:43:47;2.55;;;1.23;;
49041;SDS011;34859;51.608;11.462;2023-12-20T05:46:12;1.27;;;0.85;;
49041;SDS011;34859;51.608;11.462;2023-12-20T05:48:38;6.75;;;1.17;;
49041;SDS011;34859;51.608;11.462;2023-12-20T05:51:04;2.65;;;1.13;;
49041;SDS011;34859;51.608;11.462;2023-12-20T05:53:50;5.22;;;1.45;;
49041;SDS011;34859;51.608;11.462;2023-12-20T05:56:36;6.75;;;1.30;;
49041;SDS011;34859;51.608;11.462;2023-12-20T05:59:01;3.55;;;1.23;;
49041;SDS011;34859;51.608;11.462;2023-12-20T06:01:28;2.47;;;1.20;;
49041;SDS011;34859;51.608;11.462;2023-12-20T06:03:53;5.32;;;1.10;;
49041;SDS011;34859;51.608;11.462;2023-12-20T06:06:19;2.13;;;0.90;;
49041;SDS011;34859;51.608;11.462;2023-12-20T06:08:45;2.33;;;1.02;;
49041;SDS011;34859;51.608;11.462;2023-12-20T06:11:10;2.55;;;0.88;;
49041;SDS011;34859;51.608;11.462;2023-12-20T06:13:37;3.22;;;0.88;;
49041;SDS011;34859;51.608;11.462;2023-12-20T06:16:03;1.77;;;0.82;;
49041;SDS011;34859;51.608;11.462;2023-12-20T06:18:30;1.27;;;0.95;;
49041;SDS011;34859;51.608;11.462;2023-12-20T06:20:57;3.97;;;1.08;;
49041;SDS011;34859;51.608;11.462;2023-12-20T06:23:22;4.03;;;1.17;;
49041;SDS011;34859;51.608;11.462;2023-12-20T06:25:48;7.10;;;1.02;;
49041;SDS011;34859;51.608;11.462;2023-12-20T06:28:14;4.45;;;1.33;;
49041;SDS011;34859;51.608;11.462;2023-12-20T06:30:40;3.85;;;1.02;;
49041;SDS011;34859;51.608;11.462;2023-12-20T06:33:07;5.45;;;1.10;;
49041;SDS011;34859;51.608;11.462;2023-12-20T06:35:34;1.85;;;0.82;;
49041;SDS011;34859;51.608;11.462;2023-12-20T06:38:20;3.55;;;0.95;;
49041;SDS011;34859;51.608;11.462;2023-12-20T06:40:46;7.93;;;1.70;;
49041;SDS011;34859;51.608;11.462;2023-12-20T06:43:12;6.15;;;1.00;;
49041;SDS011;34859;51.608;11.462;2023-12-20T06:45:38;7.38;;;1.08;;
49041;SDS011;34859;51.608;11.462;2023-12-20T06:48:04;3.90;;;1.00;;
49041;SDS011;34859;51.608;11.462;2023-12-20T06:50:30;3.42;;;0.95;;
49041;SDS011;34859;51.608;11.462;2023-12-20T06:52:57;2.35;;;0.90;;
49041;SDS011;34859;51.608;11.462;2023-12-20T06:55:22;3.95;;;1.40;;
49041;SDS011;34859;51.608;11.462;2023-12-20T06:57:48;4.88;;;1.33;;
49041;SDS011;34859;51.608;11.462;2023-12-20T07:00:14;6.43;;;1.75;;
49041;SDS011;34859;51.608;11.462;2023-12-20T07:02:40;3.25;;;1.23;;
49041;SDS011;34859;51.608;11.462;2023-12-20T07:05:07;2.85;;;1.45;;
49041;SDS011;34859;51.608;11.462;2023-12-20T07:07:33;5.68;;;1.90;;
49041;SDS011;34859;51.608;11.462;2023-12-20T07:09:58;5.20;;;1.40;;
49041;SDS011;34859;51.608;11.462;2023-12-20T07:12:24;6.28;;;2.67;;
49041;SDS011;34859;51.608;11.462;2023-12-20T07:14:50;6.88;;;1.58;;
49041;SDS011;34859;51.608;11.462;2023-12-20T07:17:17;3.80;;;1.23;;
49041;SDS011;34859;51.608;11.462;2023-12-20T07:19:45;13.95;;;2.30;;
49041;SDS011;34859;51.608;11.462;2023-12-20T07:22:11;5.15;;;1.85;;
49041;SDS011;34859;51.608;11.462;2023-12-20T07:24:37;11.23;;;1.77;;
49041;SDS011;34859;51.608;11.462;2023-12-20T07:27:03;7.78;;;2.05;;
49041;SDS011;34859;51.608;11.462;2023-12-20T07:29:29;7.20;;;2.13;;
49041;SDS011;34859;51.608;11.462;2023-12-20T07:31:54;10.70;;;2.08;;
49041;SDS011;34859;51.608;11.462;2023-12-20T07:34:20;3.88;;;2.08;;
49041;SDS011;34859;51.608;11.462;2023-12-20T07:36:50;13.18;;;1.92;;
49041;SDS011;34859;51.608;11.462;2023-12-20T07:39:17;6.95;;;1.95;;
49041;SDS011;34859;51.608;11.462;2023-12-20T07:41:43;8.65;;;2.30;;
49041;SDS011;34859;51.608;11.462;2023-12-20T07:44:09;9.07;;;1.88;;
49041;SDS011;34859;51.608;11.462;2023-12-20T07:46:37;8.95;;;1.60;;
49041;SDS011;34859;51.608;11.462;2023-12-20T07:49:03;9.50;;;1.92;;
49041;SDS011;34859;51.608;11.462;2023-12-20T07:51:30;5.22;;;1.80;;
49041;SDS011;34859;51.608;11.462;2023-12-20T07:54:00;11.02;;;1.98;;
49041;SDS011;34859;51.608;11.462;2023-12-20T07:56:28;6.75;;;1.38;;
49041;SDS011;34859;51.608;11.462;2023-12-20T07:58:53;9.23;;;2.20;;
49041;SDS011;34859;51.608;11.462;2023-12-20T08:01:24;7.30;;;2.42;;
49041;SDS011;34859;51.608;11.462;2023-12-20T08:03:50;4.47;;;1.50;;
49041;SDS011;34859;51.608;11.462;2023-12-20T08:06:17;8.15;;;2.03;;
49041;SDS011;34859;51.608;11.462;2023-12-20T08:08:43;8.88;;;1.80;;
49041;SDS011;34859;51.608;11.462;2023-12-20T08:11:09;13.43;;;3.10;;
49041;SDS011;34859;51.608;11.462;2023-12-20T08:13:37;7.22;;;1.92;;
49041;SDS011;34859;51.608;11.462;2023-12-20T08:16:03;9.45;;;2.30;;
49041;SDS011;34859;51.608;11.462;2023-12-20T08:18:29;7.78;;;1.88;;
49041;SDS011;34859;51.608;11.462;2023-12-20T08:20:57;4.60;;;1.50;;
49041;SDS011;34859;51.608;11.462;2023-12-20T08:23:23;6.75;;;1.83;;
49041;SDS011;34859;51.608;11.462;2023-12-20T08:25:48;4.95;;;1.38;;
49041;SDS011;34859;51.608;11.462;2023-12-20T08:28:14;9.93;;;1.80;;
49041;SDS011;34859;51.608;11.462;2023-12-20T08:30:40;9.55;;;1.77;;
49041;SDS011;34859;51.608;11.462;2023-12-20T08:33:07;17.80;;;3.53;;
49041;SDS011;34859;51.608;11.462;2023-12-20T08:35:40;7.25;;;2.20;;
49041;SDS011;34859;51.608;11.462;2023-12-20T08:38:07;4.85;;;1.88;;
49041;SDS011;34859;51.608;11.462;2023-12-20T08:40:32;5.95;;;1.60;;
49041;SDS011;34859;51.608;11.462;2023-12-20T08:42:59;12.75;;;1.92;;
49041;SDS011;34859;51.608;11.462;2023-12-20T08:45:28;9.35;;;2.13;;
49041;SDS011;34859;51.608;11.462;2023-12-20T08:47:53;14.85;;;2.33;;
49041;SDS011;34859;51.608;11.462;2023-12-20T08:50:19;10.20;;;3.33;;
49041;SDS011;34859;51.608;11.462;2023-12-20T08:52:47;8.38;;;1.90;;
49041;SDS011;34859;51.608;11.462;2023-12-20T08:55:13;10.43;;;2.65;;
49041;SDS011;34859;51.608;11.462;2023-12-20T08:57:40;6.55;;;2.00;;
49041;SDS011;34859;51.608;11.462;2023-12-20T09:00:07;10.13;;;2.13;;
49041;SDS011;34859;51.608;11.462;2023-12-20T09:02:33;6.35;;;1.77;;
49041;SDS011;34859;51.608;11.462;2023-12-20T09:05:01;10.15;;;2.08;;
49041;SDS011;34859;51.608;11.462;2023-12-20T09:07:28;10.52;;;2.63;;
49041;SDS011;34859;51.608;11.462;2023-12-20T09:09:58;10.35;;;2.03;;
49041;SDS011;34859;51.608;11.462;2023-12-20T09:12:24;10.55;;;1.85;;
49041;SDS011;34859;51.608;11.462;2023-12-20T09:14:50;8.35;;;2.05;;
49041;SDS011;34859;51.608;11.462;2023-12-20T09:17:17;7.60;;;2.35;;
49041;SDS011;34859;51.608;11.462;2023-12-20T09:19:44;8.63;;;1.80;;
49041;SDS011;34859;51.608;11.462;2023-12-20T09:22:10;7.43;;;1.90;;
49041;SDS011;34859;51.608;11.462;2023-12-20T09:24:41;6.05;;;1.90;;
49041;SDS011;34859;51.608;11.462;2023-12-20T09:27:07;9.80;;;1.98;;
49041;SDS011;34859;51.608;11.462;2023-12-20T09:29:32;2.28;;;1.38;;
49041;SDS011;34859;51.608;11.462;2023-12-20T09:31:58;8.65;;;1.35;;
49041;SDS011;34859;51.608;11.462;2023-12-20T09:34:24;4.47;;;1.55;;
49041;SDS011;34859;51.608;11.462;2023-12-20T09:36:51;2.80;;;1.27;;
49041;SDS011;34859;51.608;11.462;2023-12-20T09:39:17;9.20;;;1.67;;
49041;SDS011;34859;51.608;11.462;2023-12-20T09:42:08;6.07;;;2.13;;
49041;SDS011;34859;51.608;11.462;2023-12-20T09:44:33;5.47;;;1.50;;
49041;SDS011;34859;51.608;11.462;2023-12-20T09:47:02;5.97;;;1.70;;
49041;SDS011;34859;51.608;11.462;2023-12-20T09:49:29;7.30;;;2.13;;
49041;SDS011;34859;51.608;11.462;2023-12-20T09:51:59;7.47;;;1.60;;
49041;SDS011;34859;51.608;11.462;2023-12-20T09:54:28;6.78;;;2.15;;
49041;SDS011;34859;51.608;11.462;2023-12-20T09:56:54;10.55;;;1.90;;
49041;SDS011;34859;51.608;11.462;2023-12-20T09:59:20;5.45;;;1.83;;
49041;SDS011;34859;51.608;11.462;2023-12-20T10:01:47;6.78;;;2.22;;
49041;SDS011;34859;51.608;11.462;2023-12-20T10:04:15;12.45;;;2.63;;
49041;SDS011;34859;51.608;11.462;2023-12-20T10:06:52;6.20;;;2.10;;
49041;SDS011;34859;51.608;11.462;2023-12-20T10:09:17;7.78;;;4.35;;
49041;SDS011;34859;51.608;11.462;2023-12-20T10:11:43;9.10;;;2.33;;
49041;SDS011;34859;51.608;11.462;2023-12-20T10:14:10;7.45;;;2.05;;
49041;SDS011;34859;51.608;11.462;2023-12-20T10:16:40;10.27;;;2.80;;
49041;SDS011;34859;51.608;11.462;2023-12-20T10:19:07;9.63;;;2.13;;
49041;SDS011;34859;51.608;11.462;2023-12-20T10:21:32;5.30;;;1.65;;
49041;SDS011;34859;51.608;11.462;2023-12-20T10:23:58;9.25;;;2.00;;
49041;SDS011;34859;51.608;11.462;2023-12-20T10:26:32;7.25;;;2.00;;
49041;SDS011;34859;51.608;11.462;2023-12-20T10:29:01;7.55;;;2.20;;
49041;SDS011;34859;51.608;11.462;2023-12-20T10:31:30;7.70;;;2.28;;
49041;SDS011;34859;51.608;11.462;2023-12-20T10:33:57;8.07;;;2.40;;
49041;SDS011;34859;51.608;11.462;2023-12-20T10:36:28;7.72;;;2.38;;
49041;SDS011;34859;51.608;11.462;2023-12-20T10:38:55;9.13;;;2.25;;
49041;SDS011;34859;51.608;11.462;2023-12-20T10:41:31;14.48;;;3.17;;
49041;SDS011;34859;51.608;11.462;2023-12-20T10:44:07;13.30;;;3.90;;
49041;SDS011;34859;51.608;11.462;2023-12-20T10:46:56;19.65;;;3.20;;
49041;SDS011;34859;51.608;11.462;2023-12-20T10:49:37;17.15;;;5.20;;
49041;SDS011;34859;51.608;11.462;2023-12-20T10:52:04;17.15;;;5.18;;
49041;SDS011;34859;51.608;11.462;2023-12-20T10:54:42;11.35;;;4.50;;
49041;SDS011;34859;51.608;11.462;2023-12-20T11:03:18;13.80;;;2.40;;
49041;SDS011;34859;51.608;11.462;2023-12-20T12:07:27;6.13;;;1.83;;
49041;SDS011;34859;51.608;11.462;2023-12-20T12:18:40;10.60;;;1.42;;
49041;SDS011;34859;51.608;11.462;2023-12-20T12:37:06;2.92;;;1.30;;
49041;SDS011;34859;51.608;11.462;2023-12-20T12:44:26;3.38;;;1.10;;
49041;SDS011;34859;51.608;11.462;2023-12-20T12:46:56;2.35;;;1.17;;
49041;SDS011;34859;51.608;11.462;2023-12-20T12:49:28;2.30;;;1.10;;
49041;SDS011;34859;51.608;11.462;2023-12-20T12:52:23;3.55;;;1.08;;
49041;SDS011;34859;51.608;11.462;2023-12-20T12:58:55;3.13;;;1.23;;
49041;SDS011;34859;51.608;11.462;2023-12-20T13:08:59;2.10;;;1.02;;
49041;SDS011;34859;51.608;11.462;2023-12-20T13:20:49;5.70;;;1.17;;
49041;SDS011;34859;51.608;11.462;2023-12-20T13:38:56;3.22;;;2.05;;
49041;SDS011;34859;51.608;11.462;2023-12-20T13:42:18;1.63;;;1.40;;
49041;SDS011;34859;51.608;11.462;2023-12-20T14:00:59;2.08;;;0.82;;
49041;SDS011;34859;51.608;11.462;2023-12-20T14:08:13;2.60;;;0.95;;
49041;SDS011;34859;51.608;11.462;2023-12-20T14:30:38;2.40;;;0.80;;
49041;SDS011;34859;51.608;11.462;2023-12-20T14:45:36;2.88;;;1.10;;
49041;SDS011;34859;51.608;11.462;2023-12-20T14:52:58;9.38;;;6.57;;
49041;SDS011;34859;51.608;11.462;2023-12-20T14:56:24;2.70;;;2.10;;
49041;SDS011;34859;51.608;11.462;2023-12-20T14:59:52;1.92;;;1.27;;
49041;SDS011;34859;51.608;11.462;2023-12-20T15:03:01;3.70;;;0.95;;
49041;SDS011;34859;51.608;11.462;2023-12-20T15:06:26;1.42;;;0.85;;
49041;SDS011;34859;51.608;11.462;2023-12-20T15:09:51;1.23;;;1.00;;
49041;SDS011;34859;51.608;11.462;2023-12-20T15:13:14;2.22;;;1.20;;
49041;SDS011;34859;51.608;11.462;2023-12-20T15:16:00;1.67;;;1.00;;
49041;SDS011;34859;51.608;11.462;2023-12-20T15:18:30;4.45;;;1.38;;
49041;SDS011;34859;51.608;11.462;2023-12-20T15:20:57;2.08;;;0.88;;
49041;SDS011;34859;51.608;11.462;2023-12-20T15:23:23;1.05;;;0.90;;
49041;SDS011;34859;51.608;11.462;2023-12-20T15:25:51;3.95;;;1.17;;
49041;SDS011;34859;51.608;11.462;2023-12-20T15:28:29;3.00;;;1.50;;
49041;SDS011;34859;51.608;11.462;2023-12-20T16:37:50;0.70;;;0.50;;
49041;SDS011;34859;51.608;11.462;2023-12-20T16:40:17;0.50;;;0.50;;
49041;SDS011;34859;51.608;11.462;2023-12-20T16:42:50;0.75;;;0.70;;
49041;SDS011;34859;51.608;11.462;2023-12-20T16:45:17;0.88;;;0.60;;
49041;SDS011;34859;51.608;11.462;2023-12-20T16:47:43;0.60;;;0.40;;
49041;SDS011;34859;51.608;11.462;2023-12-20T16:50:09;1.02;;;0.80;;
49041;SDS011;34859;51.608;11.462;2023-12-20T16:52:37;0.60;;;0.55;;
49041;SDS011;34859;51.608;11.462;2023-12-20T16:55:08;2.15;;;1.55;;
49041;SDS011;34859;51.608;11.462;2023-12-20T16:57:34;0.47;;;0.47;;
49041;SDS011;34859;51.608;11.462;2023-12-20T17:00:00;0.60;;;0.60;;
49041;SDS011;34859;51.608;11.462;2023-12-20T17:02:28;0.60;;;0.60;;
49041;SDS011;34859;51.608;11.462;2023-12-20T17:04:53;0.80;;;0.60;;
49041;SDS011;34859;51.608;11.462;2023-12-20T17:07:19;0.47;;;0.40;;
49041;SDS011;34859;51.608;11.462;2023-12-20T17:09:45;1.10;;;0.82;;
49041;SDS011;34859;51.608;11.462;2023-12-20T17:12:12;1.75;;;1.58;;
49041;SDS011;34859;51.608;11.462;2023-12-20T17:14:58;1.00;;;0.80;;
49041;SDS011;34859;51.608;11.462;2023-12-20T17:17:45;0.77;;;0.75;;
49041;SDS011;34859;51.608;11.462;2023-12-20T17:20:31;4.90;;;1.20;;
49041;SDS011;34859;51.608;11.462;2023-12-20T17:23:17;1.15;;;1.05;;
49041;SDS011;34859;51.608;11.462;2023-12-20T17:26:04;0.80;;;0.80;;
49041;SDS011;34859;51.608;11.462;2023-12-20T17:28:29;1.80;;;1.65;;
49041;SDS011;34859;51.608;11.462;2023-12-20T17:30:58;1.85;;;1.75;;
49041;SDS011;34859;51.608;11.462;2023-12-20T17:33:25;1.52;;;1.42;;
49041;SDS011;34859;51.608;11.462;2023-12-20T17:35:51;4.97;;;4.63;;
49041;SDS011;34859;51.608;11.462;2023-12-20T17:38:17;21.25;;;15.50;;
49041;SDS011;34859;51.608;11.462;2023-12-20T17:40:43;18.20;;;13.45;;
49041;SDS011;34859;51.608;11.462;2023-12-20T17:43:10;4.47;;;3.88;;
49041;SDS011;34859;51.608;11.462;2023-12-20T17:45:37;11.65;;;10.05;;
49041;SDS011;34859;51.608;11.462;2023-12-20T17:48:03;3.40;;;3.20;;
49041;SDS011;34859;51.608;11.462;2023-12-20T17:50:30;2.90;;;2.75;;
49041;SDS011;34859;51.608;11.462;2023-12-20T17:52:57;3.33;;;1.30;;
49041;SDS011;34859;51.608;11.462;2023-12-20T17:55:30;2.55;;;1.13;;
49041;SDS011;34859;51.608;11.462;2023-12-20T17:57:57;0.95;;;0.75;;
49041;SDS011;34859;51.608;11.462;2023-12-20T18:00:24;0.77;;;0.77;;
49041;SDS011;34859;51.608;11.462;2023-12-20T18:05:23;3.63;;;2.72;;
49041;SDS011;34859;51.608;11.462;2023-12-20T18:07:49;2.55;;;2.45;;
49041;SDS011;34859;51.608;11.462;2023-12-20T18:10:17;1.17;;;1.17;;
49041;SDS011;34859;51.608;11.462;2023-12-20T18:12:43;1.98;;;1.40;;
49041;SDS011;34859;51.608;11.462;2023-12-20T18:15:09;1.92;;;1.77;;
49041;SDS011;34859;51.608;11.462;2023-12-20T18:17:37;0.98;;;0.98;;
49041;SDS011;34859;51.608;11.462;2023-12-20T18:20:03;1.65;;;1.45;;
49041;SDS011;34859;51.608;11.462;2023-12-20T18:22:29;3.88;;;3.58;;
49041;SDS011;34859;51.608;11.462;2023-12-20T18:24:57;1.67;;;1.58;;
49041;SDS011;34859;51.608;11.462;2023-12-20T18:27:23;1.23;;;1.13;;
49041;SDS011;34859;51.608;11.462;2023-12-20T18:29:50;3.83;;;1.40;;
49041;SDS011;34859;51.608;11.462;2023-12-20T18:32:17;1.45;;;1.30;;
49041;SDS011;34859;51.608;11.462;2023-12-20T18:34:42;1.95;;;1.60;;
49041;SDS011;34859;51.608;11.462;2023-12-20T18:37:08;1.40;;;1.23;;
49041;SDS011;34859;51.608;11.462;2023-12-20T18:39:37;1.63;;;1.52;;
49041;SDS011;34859;51.608;11.462;2023-12-20T18:42:04;1.40;;;1.30;;
49041;SDS011;34859;51.608;11.462;2023-12-20T18:44:31;1.25;;;1.15;;
49041;SDS011;34859;51.608;11.462;2023-12-20T18:46:57;1.30;;;0.82;;
49041;SDS011;34859;51.608;11.462;2023-12-20T18:49:22;0.95;;;0.95;;
49041;SDS011;34859;51.608;11.462;2023-12-20T18:51:48;4.78;;;1.50;;
49041;SDS011;34859;51.608;11.462;2023-12-20T18:54:14;2.25;;;1.80;;
49041;SDS011;34859;51.608;11.462;2023-12-20T18:56:40;0.80;;;0.80;;
49041;SDS011;34859;51.608;11.462;2023-12-20T18:59:08;0.73;;;0.73;;
49041;SDS011;34859;51.608;11.462;2023-12-20T19:01:33;0.75;;;0.70;;
49041;SDS011;34859;51.608;11.462;2023-12-20T19:03:59;1.90;;;0.90;;
49041;SDS011;34859;51.608;11.462;2023-12-20T19:06:28;4.57;;;4.13;;